createdAt,value
2018-04-23T00:04:27.320Z,17.44
2018-04-23T00:06:55.418Z,17.47
2018-04-23T00:09:23.524Z,17.39
2018-04-23T00:11:51.633Z,17.36
2018-04-23T00:14:19.783Z,17.11
2018-04-23T00:16:48.015Z,17.29
2018-04-23T00:21:50.517Z,17.22
2018-04-23T00:24:18.705Z,17.33
2018-04-23T00:26:46.790Z,17.25
2018-04-23T00:42:14.888Z,17.33
2018-04-23T00:44:42.999Z,17.31
2018-04-23T00:47:11.101Z,17.26
2018-04-23T00:49:39.236Z,17.18
2018-04-23T00:52:07.275Z,17.23
2018-04-23T00:54:35.375Z,16.59
2018-04-23T00:57:03.467Z,16.66
2018-04-23T00:59:31.550Z,16.66
2018-04-23T01:01:59.663Z,16.51
2018-04-23T01:04:27.789Z,16.62
2018-04-23T01:07:01.857Z,16.55
2018-04-23T01:09:29.930Z,16.68
2018-04-23T01:11:58.023Z,16.69
2018-04-23T01:24:11.369Z,16.91
2018-04-23T01:26:39.477Z,16.79
2018-04-23T01:29:08.169Z,16.73
2018-04-23T01:31:36.279Z,16.54
2018-04-23T01:34:04.367Z,16.64
2018-04-23T01:36:32.455Z,16.61
2018-04-23T01:39:00.547Z,16.56
2018-04-23T01:41:34.333Z,16.56
2018-04-23T01:44:07.961Z,16.38
2018-04-23T01:46:41.467Z,16.41
2018-04-23T01:49:09.547Z,16.35
2018-04-23T01:51:37.635Z,16.33
2018-04-23T01:54:05.752Z,16.22
2018-04-23T01:56:38.788Z,16.22
2018-04-23T01:59:06.891Z,16.11
2018-04-23T02:01:34.981Z,16.20
2018-04-23T02:04:03.370Z,16.13
2018-04-23T02:06:31.424Z,16.07
2018-04-23T02:08:59.694Z,16.21
2018-04-23T02:11:27.791Z,16.28
2018-04-23T02:13:55.871Z,16.37
2018-04-23T02:16:23.950Z,16.37
2018-04-23T02:18:52.059Z,16.40
2018-04-23T02:21:20.139Z,16.18
2018-04-23T02:23:48.223Z,15.94
2018-04-23T02:26:16.339Z,16.26
2018-04-23T02:28:44.415Z,16.30
2018-04-23T02:31:12.529Z,16.17
2018-04-23T02:33:40.619Z,16.19
2018-04-23T02:36:08.712Z,16.16
2018-04-23T02:38:36.783Z,16.17
2018-04-23T02:41:04.891Z,15.95
2018-04-23T02:43:33.991Z,15.71
2018-04-23T02:46:02.084Z,15.87
2018-04-23T02:48:30.184Z,15.91
2018-04-23T02:50:58.325Z,16.04
2018-04-23T02:53:26.887Z,15.99
2018-04-23T02:55:55.059Z,15.80
2018-04-23T02:58:23.430Z,15.74
2018-04-23T03:00:51.520Z,15.70
2018-04-23T03:03:24.595Z,15.76
2018-04-23T03:05:52.686Z,15.73
2018-04-23T03:08:20.792Z,15.69
2018-04-23T03:10:48.888Z,15.49
2018-04-23T03:13:16.975Z,15.52
2018-04-23T03:15:45.068Z,15.63
2018-04-23T03:18:13.172Z,15.76
2018-04-23T03:20:41.274Z,15.94
2018-04-23T03:23:09.357Z,15.62
2018-04-23T03:25:37.455Z,15.32
2018-04-23T03:28:05.574Z,15.36
2018-04-23T03:30:33.657Z,15.60
2018-04-23T03:33:01.748Z,15.60
2018-04-23T03:35:29.852Z,15.68
2018-04-23T03:37:57.938Z,15.54
2018-04-23T03:40:26.090Z,15.76
2018-04-23T03:42:54.174Z,15.86
2018-04-23T03:45:22.303Z,15.88
2018-04-23T03:47:50.413Z,15.87
2018-04-23T03:50:19.169Z,15.82
2018-04-23T03:52:47.269Z,15.69
2018-04-23T03:55:15.837Z,15.77
2018-04-23T03:57:44.045Z,15.41
2018-04-23T04:00:12.079Z,15.31
2018-04-23T04:02:40.179Z,15.32
2018-04-23T04:05:08.288Z,15.50
2018-04-23T04:07:36.370Z,15.47
2018-04-23T04:19:49.450Z,15.20
2018-04-23T04:22:17.542Z,15.16
2018-04-23T04:24:45.689Z,14.97
2018-04-23T04:27:13.796Z,15.14
2018-04-23T04:29:41.910Z,15.29
2018-04-23T04:32:10.010Z,15.42
2018-04-23T04:34:38.104Z,15.51
2018-04-23T04:37:06.194Z,15.40
2018-04-23T04:39:35.322Z,15.39
2018-04-23T04:42:03.428Z,15.23
2018-04-23T04:44:32.506Z,15.27
2018-04-23T04:56:45.604Z,15.35
2018-04-23T04:59:13.702Z,15.23
2018-04-23T05:01:41.834Z,15.28
2018-04-23T05:04:10.002Z,15.35
2018-04-23T05:06:38.300Z,15.27
2018-04-23T05:09:06.379Z,15.37
2018-04-23T05:11:34.497Z,15.45
2018-04-23T05:14:02.578Z,15.43
2018-04-23T05:16:30.674Z,15.43
2018-04-23T05:18:58.774Z,15.46
2018-04-23T05:21:32.466Z,15.71
2018-04-23T05:24:00.556Z,15.42
2018-04-23T05:26:28.673Z,15.28
2018-04-23T05:28:56.754Z,15.23
2018-04-23T05:31:24.843Z,15.18
2018-04-23T05:33:58.539Z,15.32
2018-04-23T05:36:26.614Z,15.30
2018-04-23T05:38:54.709Z,15.38
2018-04-23T05:41:23.735Z,15.52
2018-04-23T05:43:56.784Z,15.65
2018-04-23T05:46:24.864Z,15.42
2018-04-23T05:48:52.962Z,15.50
2018-04-23T05:51:21.040Z,15.35
2018-04-23T05:53:49.152Z,15.35
2018-04-23T05:56:17.239Z,15.24
2018-04-23T05:58:45.465Z,15.57
2018-04-23T06:01:13.539Z,15.62
2018-04-23T06:03:42.044Z,15.58
2018-04-23T06:06:10.131Z,15.59
2018-04-23T06:08:38.220Z,15.47
2018-04-23T06:11:06.866Z,15.58
2018-04-23T06:13:35.346Z,15.68
2018-04-23T06:16:03.451Z,15.67
2018-04-23T06:18:31.584Z,15.75
2018-04-23T06:21:00.618Z,15.65
2018-04-23T06:23:28.838Z,15.49
2018-04-23T06:25:56.954Z,15.63
2018-04-23T06:28:25.030Z,15.66
2018-04-23T06:30:53.658Z,15.51
2018-04-23T06:33:21.754Z,15.35
2018-04-23T06:35:49.861Z,15.50
2018-04-23T06:38:17.969Z,15.50
2018-04-23T06:40:46.057Z,15.58
2018-04-23T06:43:14.162Z,15.52
2018-04-23T06:45:42.279Z,15.54
2018-04-23T06:48:10.360Z,15.51
2018-04-23T06:50:38.439Z,15.75
2018-04-23T06:53:06.912Z,16.00
2018-04-23T06:55:35.928Z,15.78
2018-04-23T06:58:04.027Z,15.89
2018-04-23T07:00:32.867Z,15.94
2018-04-23T07:03:00.983Z,16.06
2018-04-23T07:05:35.595Z,16.18
2018-04-23T07:08:05.494Z,16.25
2018-04-23T07:10:33.584Z,16.27
2018-04-23T07:13:01.661Z,16.03
2018-04-23T07:15:29.770Z,16.11
2018-04-23T07:17:57.846Z,16.09
2018-04-23T07:20:25.940Z,16.32
2018-04-23T07:22:55.143Z,16.18
2018-04-23T07:25:23.959Z,16.34
2018-04-23T07:27:52.643Z,16.23
2018-04-23T07:30:20.743Z,16.61
2018-04-23T07:32:48.827Z,17.01
2018-04-23T07:35:17.709Z,17.34
2018-04-23T07:37:45.862Z,17.08
2018-04-23T07:40:13.950Z,16.80
2018-04-23T07:42:42.054Z,16.92
2018-04-23T07:45:10.194Z,17.02
2018-04-23T07:47:38.304Z,17.34
2018-04-23T07:50:06.385Z,17.28
2018-04-23T07:52:34.488Z,17.10
2018-04-23T07:55:02.569Z,16.98
2018-04-23T07:57:30.688Z,16.87
2018-04-23T07:59:58.794Z,16.71
2018-04-23T08:02:27.461Z,16.54
2018-04-23T08:04:55.540Z,16.48
2018-04-23T08:07:23.638Z,16.44
2018-04-23T08:09:51.763Z,16.55
2018-04-23T08:12:19.864Z,16.54
2018-04-23T08:14:47.944Z,16.43
2018-04-23T08:17:21.663Z,16.25
2018-04-23T08:19:49.739Z,16.57
2018-04-23T08:22:17.825Z,16.53
2018-04-23T08:24:46.188Z,16.61
2018-04-23T08:27:14.286Z,16.69
2018-04-23T08:29:42.463Z,16.77
2018-04-23T08:32:10.821Z,16.65
2018-04-23T08:34:38.918Z,16.70
2018-04-23T08:37:06.994Z,16.62
2018-04-23T08:39:35.100Z,16.56
2018-04-23T08:42:03.180Z,16.54
2018-04-23T08:44:32.294Z,16.52
2018-04-23T08:47:00.399Z,16.52
2018-04-23T08:49:28.568Z,16.45
2018-04-23T08:51:56.664Z,16.46
2018-04-23T08:54:24.806Z,16.59
2018-04-23T08:56:52.885Z,16.89
2018-04-23T08:59:21.564Z,16.61
2018-04-23T09:01:50.275Z,16.57
2018-04-23T09:04:18.847Z,16.95
2018-04-23T09:06:46.930Z,16.99
2018-04-23T09:09:15.007Z,16.79
2018-04-23T09:11:43.977Z,16.58
2018-04-23T09:14:11.983Z,16.54
2018-04-23T09:16:40.099Z,16.51
2018-04-23T09:19:08.196Z,16.27
2018-04-23T09:21:36.280Z,16.50
2018-04-23T09:24:05.275Z,16.72
2018-04-23T09:26:34.316Z,16.94
2018-04-23T09:29:02.395Z,16.83
2018-04-23T09:44:30.502Z,17.13
2018-04-23T09:46:58.899Z,17.29
2018-04-23T09:49:26.994Z,17.19
2018-04-23T09:51:55.091Z,17.35
2018-04-23T09:54:23.191Z,17.33
2018-04-23T09:56:52.054Z,17.38
2018-04-23T09:59:21.021Z,17.35
2018-04-23T10:01:51.540Z,17.22
2018-04-23T10:04:24.078Z,17.33
2018-04-23T10:06:52.165Z,17.26
2018-04-23T10:09:20.368Z,17.36
2018-04-23T10:11:53.966Z,17.48
2018-04-23T10:14:22.035Z,17.49
2018-04-23T10:16:50.114Z,17.31
2018-04-23T10:19:18.221Z,17.32
2018-04-23T10:21:46.365Z,17.43
2018-04-23T10:24:14.635Z,17.33
2018-04-23T10:26:42.716Z,17.29
2018-04-23T10:29:10.792Z,17.27
2018-04-23T10:31:38.918Z,17.11
2018-04-23T10:34:07.727Z,16.95
2018-04-23T10:36:41.604Z,16.91
2018-04-23T10:39:09.704Z,16.93
2018-04-23T10:41:37.837Z,16.78
2018-04-23T10:44:05.951Z,16.71
2018-04-23T10:46:34.051Z,16.82
2018-04-23T10:49:02.143Z,17.03
2018-04-23T10:51:30.666Z,17.09
2018-04-23T10:54:04.351Z,17.18
2018-04-23T10:56:37.945Z,17.21
2018-04-23T10:59:06.027Z,17.19
2018-04-23T11:01:34.131Z,17.26
2018-04-23T11:04:02.582Z,17.25
2018-04-23T11:06:30.667Z,17.28
2018-04-23T11:08:58.815Z,17.15
2018-04-23T11:11:26.895Z,17.21
2018-04-23T11:13:55.039Z,17.31
2018-04-23T11:16:23.149Z,17.17
2018-04-23T11:18:51.231Z,17.33
2018-04-23T11:21:19.319Z,17.51
2018-04-23T11:23:53.755Z,17.34
2018-04-23T11:26:27.411Z,17.17
2018-04-23T11:28:55.511Z,17.10
2018-04-23T11:31:24.088Z,17.09
2018-04-23T11:33:52.171Z,17.12
2018-04-23T11:36:20.278Z,17.10
2018-04-23T11:38:48.434Z,17.06
2018-04-23T11:41:16.456Z,16.91
2018-04-23T11:43:45.249Z,17.04
2018-04-23T11:46:13.336Z,16.99
2018-04-23T11:48:41.418Z,17.08
2018-04-23T11:51:09.571Z,17.06
2018-04-23T11:53:37.679Z,16.64
2018-04-23T11:56:05.773Z,16.74
2018-04-23T11:58:39.443Z,16.83
2018-04-23T12:01:07.564Z,16.96
2018-04-23T12:03:35.639Z,16.97
2018-04-23T12:06:09.423Z,16.97
2018-04-23T12:08:43.358Z,16.94
2018-04-23T12:11:11.441Z,17.07
2018-04-23T12:13:39.562Z,17.19
2018-04-23T12:16:07.668Z,17.14
2018-04-23T12:18:35.748Z,16.97
2018-04-23T12:21:04.288Z,17.06
2018-04-23T12:23:32.359Z,17.08
2018-04-23T12:26:00.491Z,17.13
2018-04-23T12:28:29.271Z,17.05
2018-04-23T12:30:57.375Z,16.91
2018-04-23T12:33:25.548Z,16.86
2018-04-23T12:35:54.887Z,16.82
2018-04-23T12:38:22.971Z,16.85
2018-04-23T12:40:51.404Z,16.81
2018-04-23T12:43:20.256Z,16.87
2018-04-23T12:45:48.400Z,16.77
2018-04-23T12:48:16.949Z,16.70
2018-04-23T12:50:45.043Z,16.78
2018-04-23T12:53:13.167Z,16.73
2018-04-23T12:55:41.287Z,16.63
2018-04-23T12:58:09.344Z,16.81
2018-04-23T13:00:37.446Z,16.63
2018-04-23T13:03:06.451Z,16.76
2018-04-23T13:05:35.544Z,16.75
2018-04-23T13:08:03.641Z,16.57
2018-04-23T13:10:32.451Z,16.60
2018-04-23T13:13:00.576Z,16.71
2018-04-23T13:15:28.996Z,16.66
2018-04-23T13:17:57.075Z,16.66
2018-04-23T13:20:25.184Z,16.82
2018-04-23T13:22:53.256Z,16.79
2018-04-23T13:25:21.410Z,16.93
2018-04-23T13:27:49.517Z,16.86
2018-04-23T13:30:17.603Z,16.99
2018-04-23T13:32:46.032Z,17.01
2018-04-23T13:35:14.960Z,17.08
2018-04-23T13:50:43.686Z,16.99
2018-04-23T13:53:11.765Z,17.03
2018-04-23T13:55:39.852Z,16.86
2018-04-23T13:58:07.947Z,16.61
2018-04-23T14:00:36.052Z,16.77
2018-04-23T14:03:04.475Z,16.80
2018-04-23T14:05:32.575Z,16.84
2018-04-23T14:08:00.656Z,16.72
2018-04-23T14:10:28.763Z,16.82
2018-04-23T14:12:57.259Z,16.79
2018-04-23T14:15:30.775Z,16.78
2018-04-23T14:18:04.389Z,16.74
2018-04-23T14:20:32.500Z,16.92
2018-04-23T14:23:00.585Z,16.90
2018-04-23T14:25:28.669Z,16.95
2018-04-23T14:27:56.826Z,17.01
2018-04-23T14:30:24.894Z,16.96
2018-04-23T14:32:52.995Z,16.94
2018-04-23T14:35:21.165Z,17.01
2018-04-23T14:37:49.307Z,17.03
2018-04-23T14:40:18.132Z,16.96
2018-04-23T14:42:46.221Z,16.80
2018-04-23T14:45:14.323Z,16.89
2018-04-23T14:47:42.422Z,17.03
2018-04-23T14:50:10.892Z,16.91
2018-04-23T14:52:39.626Z,16.92
2018-04-23T14:55:07.732Z,17.02
2018-04-23T14:57:35.868Z,16.95
2018-04-23T15:00:03.964Z,16.88
2018-04-23T15:02:32.096Z,17.07
2018-04-23T15:05:00.539Z,16.95
2018-04-23T15:07:29.399Z,16.87
2018-04-23T15:09:57.498Z,16.87
2018-04-23T15:12:25.863Z,16.91
2018-04-23T15:14:53.942Z,16.89
2018-04-23T15:17:22.026Z,16.87
2018-04-23T15:19:50.886Z,16.85
2018-04-23T15:22:18.979Z,16.77
2018-04-23T15:24:47.055Z,16.93
2018-04-23T15:27:20.590Z,17.00
2018-04-23T15:29:48.667Z,17.15
2018-04-23T15:32:16.837Z,17.10
2018-04-23T15:34:50.567Z,16.97
2018-04-23T15:37:18.757Z,16.97
2018-04-23T15:39:47.227Z,16.89
2018-04-23T15:42:15.301Z,16.98
2018-04-23T15:44:44.195Z,17.06
2018-04-23T15:47:13.624Z,17.01
2018-04-23T15:49:41.743Z,17.16
2018-04-23T15:52:10.215Z,17.09
2018-04-23T15:54:38.359Z,17.01
2018-04-23T15:57:06.440Z,16.95
2018-04-23T15:59:34.573Z,17.01
2018-04-23T16:02:02.647Z,16.97
2018-04-23T16:04:36.267Z,16.80
2018-04-23T16:07:09.967Z,16.92
2018-04-23T16:09:38.049Z,16.86
2018-04-23T16:12:06.137Z,16.97
2018-04-23T16:14:35.034Z,17.09
2018-04-23T16:17:03.126Z,17.20
2018-04-23T16:19:31.298Z,17.00
2018-04-23T16:21:59.406Z,16.90
2018-04-23T16:24:27.484Z,16.91
2018-04-23T16:26:55.560Z,16.89
2018-04-23T16:29:23.684Z,16.83
2018-04-23T16:31:51.776Z,16.92
2018-04-23T16:47:19.885Z,16.62
2018-04-23T16:49:48.014Z,16.66
2018-04-23T16:52:16.771Z,16.44
2018-04-23T16:54:44.887Z,16.47
2018-04-23T16:57:12.964Z,16.59
2018-04-23T16:59:41.112Z,16.57
2018-04-23T17:02:09.467Z,16.64
2018-04-23T17:04:38.368Z,16.34
2018-04-23T17:07:06.595Z,16.42
2018-04-23T17:09:34.686Z,16.52
2018-04-23T17:12:02.778Z,16.61
2018-04-23T17:14:31.509Z,16.58
2018-04-23T17:16:59.599Z,16.59
2018-04-23T17:19:27.694Z,16.64
2018-04-23T17:21:56.101Z,16.59
2018-04-23T17:24:24.231Z,16.65
2018-04-23T17:26:52.615Z,16.48
2018-04-23T17:29:20.683Z,16.54
2018-04-23T17:31:49.121Z,16.53
2018-04-23T17:34:18.131Z,16.53
2018-04-23T17:36:46.216Z,16.55
2018-04-23T17:39:14.313Z,16.51
2018-04-23T17:41:48.895Z,16.40
2018-04-23T17:44:22.619Z,16.20
2018-04-23T17:46:50.737Z,16.09
2018-04-23T17:49:18.894Z,16.21
2018-04-23T17:51:47.025Z,16.15
2018-04-23T17:54:15.123Z,16.12
2018-04-23T17:56:44.645Z,15.94
2018-04-23T17:59:12.764Z,16.00
2018-04-23T18:01:40.858Z,15.99
2018-04-23T18:04:09.268Z,15.88
2018-04-23T18:06:37.357Z,15.82
2018-04-23T18:09:12.875Z,15.85
2018-04-23T18:11:47.207Z,15.58
2018-04-23T18:14:15.294Z,15.59
2018-04-23T18:16:43.371Z,15.64
2018-04-23T18:19:11.517Z,15.78
2018-04-23T18:21:39.660Z,15.89
2018-04-23T18:24:07.729Z,16.03
2018-04-23T18:26:35.868Z,15.88
2018-04-23T18:29:04.313Z,15.81
2018-04-23T18:31:32.407Z,15.92
2018-04-23T18:34:00.701Z,15.87
2018-04-23T18:36:28.789Z,15.58
2018-04-23T18:38:56.862Z,15.49
2018-04-23T18:41:24.950Z,15.57
2018-04-23T18:43:53.049Z,15.47
2018-04-23T18:46:21.949Z,15.44
2018-04-23T18:48:50.049Z,15.37
2018-04-23T18:51:18.250Z,15.21
2018-04-23T18:53:46.270Z,15.46
2018-04-23T18:56:14.424Z,15.33
2018-04-23T18:58:43.092Z,15.52
2018-04-23T19:01:11.206Z,15.50
2018-04-23T19:03:40.235Z,15.36
2018-04-23T19:06:09.302Z,15.40
2018-04-23T19:08:37.417Z,15.37
2018-04-23T19:11:05.499Z,15.35
2018-04-23T19:13:33.662Z,15.49
2018-04-23T19:16:01.722Z,15.31
2018-04-23T19:18:30.460Z,15.11
2018-04-23T19:20:58.574Z,15.20
2018-04-23T19:23:26.671Z,15.27
2018-04-23T19:25:54.751Z,15.25
2018-04-23T19:28:22.868Z,15.31
2018-04-23T19:30:50.997Z,15.14
2018-04-23T19:33:24.639Z,15.33
2018-04-23T19:35:52.789Z,15.37
2018-04-23T19:38:21.317Z,15.47
2018-04-23T19:40:50.116Z,15.54
2018-04-23T19:43:18.211Z,15.15
2018-04-23T19:45:46.292Z,15.22
2018-04-23T19:48:14.396Z,15.27
2018-04-23T19:50:42.500Z,15.39
2018-04-23T19:53:10.620Z,15.40
2018-04-23T19:55:38.957Z,15.21
2018-04-23T19:58:07.020Z,15.29
2018-04-23T20:00:35.154Z,15.35
2018-04-23T20:03:03.663Z,15.51
2018-04-23T20:05:31.736Z,15.15
2018-04-23T20:07:59.833Z,14.99
2018-04-23T20:10:27.924Z,14.87
2018-04-23T20:12:56.008Z,14.74
2018-04-23T20:15:24.125Z,14.86
2018-04-23T20:17:52.297Z,14.83
2018-04-23T20:20:20.367Z,14.79
2018-04-23T20:22:49.571Z,14.73
2018-04-23T20:25:17.673Z,14.54
2018-04-23T20:40:46.715Z,14.00
2018-04-23T20:43:15.735Z,13.91
2018-04-23T20:45:45.489Z,13.98
2018-04-23T20:48:14.547Z,13.75
2018-04-23T21:00:27.684Z,13.68
2018-04-23T21:02:56.559Z,13.73
2018-04-23T21:05:24.621Z,13.56
2018-04-23T21:07:52.719Z,13.52
2018-04-23T21:10:20.816Z,13.59
2018-04-23T21:12:48.906Z,13.55
2018-04-23T21:15:17.002Z,13.66
2018-04-23T21:17:45.947Z,13.63
2018-04-23T21:20:14.839Z,13.70
2018-04-23T21:22:44.651Z,13.67
2018-04-23T21:25:18.730Z,13.62
2018-04-23T21:27:48.492Z,13.60
2018-04-23T21:30:17.463Z,13.35
2018-04-23T21:32:47.346Z,13.36
2018-04-23T21:35:15.710Z,13.39
2018-04-23T21:37:43.939Z,13.42
2018-04-23T21:40:12.282Z,13.35
2018-04-23T21:42:40.368Z,13.30
2018-04-23T21:45:11.128Z,13.26
2018-04-23T21:47:39.457Z,13.19
2018-04-23T21:50:08.029Z,13.24
2018-04-23T21:52:36.123Z,13.17
2018-04-23T21:55:04.598Z,13.07
2018-04-23T21:57:32.667Z,13.25
2018-04-23T22:00:01.685Z,13.24
2018-04-23T22:02:29.792Z,13.29
2018-04-23T22:04:58.645Z,13.24
2018-04-23T22:07:26.991Z,13.14
2018-04-23T22:09:55.977Z,13.04
2018-04-23T22:12:28.499Z,13.29
2018-04-23T22:14:57.127Z,13.21
2018-04-23T22:17:26.431Z,13.13
2018-04-23T22:19:54.610Z,12.98
2018-04-23T22:22:28.324Z,12.81
2018-04-23T22:24:56.395Z,13.00
2018-04-23T22:27:24.483Z,13.13
2018-04-23T22:29:52.579Z,12.97
2018-04-23T22:32:20.659Z,12.98
2018-04-23T22:34:49.313Z,12.96
2018-04-23T22:37:17.490Z,12.96
2018-04-23T22:39:45.530Z,12.90
2018-04-23T22:42:14.001Z,13.06
2018-04-23T22:44:42.097Z,13.07
2018-04-23T22:47:10.179Z,12.98
2018-04-23T22:49:38.292Z,13.02
2018-04-23T22:52:06.395Z,12.89
2018-04-23T22:54:34.766Z,12.74
2018-04-23T22:57:02.821Z,12.76
2018-04-23T22:59:31.005Z,12.75
2018-04-23T23:01:59.083Z,12.83
2018-04-23T23:04:27.422Z,12.79
2018-04-23T23:06:55.832Z,12.64
2018-04-23T23:09:23.882Z,12.66
2018-04-23T23:11:51.978Z,12.74
2018-04-23T23:27:20.090Z,12.49
2018-04-23T23:29:48.670Z,12.52
2018-04-23T23:32:16.789Z,12.49
2018-04-23T23:34:44.890Z,12.62
2018-04-23T23:37:13.807Z,12.53
2018-04-23T23:39:41.893Z,12.54
2018-04-23T23:42:10.284Z,12.63
2018-04-23T23:44:38.332Z,12.69
2018-04-23T23:47:06.410Z,12.61
2018-04-23T23:49:34.506Z,12.59
2018-04-23T23:52:02.598Z,12.50
2018-04-23T23:54:30.732Z,12.42
2018-04-23T23:56:58.830Z,12.49
2018-04-23T23:59:26.964Z,12.56
